sensor_id;sensor_type;location;lat;lon;timestamp;temperature;humidity
16505;HTU21D;8365;51.030;4.696;2022-07-05T00:00:35;17.02;113.09
16505;HTU21D;8365;51.030;4.696;2022-07-05T00:03:06;17.02;113.07
16505;HTU21D;8365;51.030;4.696;2022-07-05T00:05:37;17.00;113.15
16505;HTU21D;8365;51.030;4.696;2022-07-05T00:08:07;16.98;113.11
16505;HTU21D;8365;51.030;4.696;2022-07-05T00:10:38;17.01;112.85
16505;HTU21D;8365;51.030;4.696;2022-07-05T00:13:08;16.98;112.74
16505;HTU21D;8365;51.030;4.696;2022-07-05T00:15:39;16.91;113.06
16505;HTU21D;8365;51.030;4.696;2022-07-05T00:18:09;16.80;113.28
16505;HTU21D;8365;51.030;4.696;2022-07-05T00:20:40;16.75;113.15
16505;HTU21D;8365;51.030;4.696;2022-07-05T00:23:13;16.76;112.77
16505;HTU21D;8365;51.030;4.696;2022-07-05T00:25:43;16.74;113.90
16505;HTU21D;8365;51.030;4.696;2022-07-05T00:28:13;16.72;114.06
16505;HTU21D;8365;51.030;4.696;2022-07-05T00:30:45;16.65;114.38
16505;HTU21D;8365;51.030;4.696;2022-07-05T00:33:15;16.67;113.83
16505;HTU21D;8365;51.030;4.696;2022-07-05T00:35:46;16.62;113.38
16505;HTU21D;8365;51.030;4.696;2022-07-05T00:38:16;16.64;113.52
16505;HTU21D;8365;51.030;4.696;2022-07-05T00:40:50;16.64;113.90
16505;HTU21D;8365;51.030;4.696;2022-07-05T00:43:20;16.60;113.78
16505;HTU21D;8365;51.030;4.696;2022-07-05T00:45:51;16.58;114.16
16505;HTU21D;8365;51.030;4.696;2022-07-05T00:48:21;16.55;113.92
16505;HTU21D;8365;51.030;4.696;2022-07-05T00:50:52;16.34;114.77
16505;HTU21D;8365;51.030;4.696;2022-07-05T00:53:23;16.34;114.95
16505;HTU21D;8365;51.030;4.696;2022-07-05T00:55:53;16.41;115.15
16505;HTU21D;8365;51.030;4.696;2022-07-05T00:58:24;16.40;114.51
16505;HTU21D;8365;51.030;4.696;2022-07-05T01:00:56;16.41;114.48
16505;HTU21D;8365;51.030;4.696;2022-07-05T01:03:27;16.41;113.95
16505;HTU21D;8365;51.030;4.696;2022-07-05T01:05:58;16.44;113.85
16505;HTU21D;8365;51.030;4.696;2022-07-05T01:08:33;16.36;113.48
16505;HTU21D;8365;51.030;4.696;2022-07-05T01:11:06;16.32;113.96
16505;HTU21D;8365;51.030;4.696;2022-07-05T01:13:37;16.31;113.93
16505;HTU21D;8365;51.030;4.696;2022-07-05T01:16:08;16.31;114.39
16505;HTU21D;8365;51.030;4.696;2022-07-05T01:18:39;16.29;115.23
16505;HTU21D;8365;51.030;4.696;2022-07-05T01:21:12;16.25;115.48
16505;HTU21D;8365;51.030;4.696;2022-07-05T01:23:43;16.24;114.89
16505;HTU21D;8365;51.030;4.696;2022-07-05T01:26:16;16.20;114.41
16505;HTU21D;8365;51.030;4.696;2022-07-05T01:28:47;16.18;114.72
16505;HTU21D;8365;51.030;4.696;2022-07-05T01:31:17;16.14;114.11
16505;HTU21D;8365;51.030;4.696;2022-07-05T01:33:50;16.14;114.86
16505;HTU21D;8365;51.030;4.696;2022-07-05T01:36:21;16.10;115.46
16505;HTU21D;8365;51.030;4.696;2022-07-05T01:38:52;16.06;115.74
16505;HTU21D;8365;51.030;4.696;2022-07-05T01:41:22;16.04;115.57
16505;HTU21D;8365;51.030;4.696;2022-07-05T01:43:55;15.97;116.22
16505;HTU21D;8365;51.030;4.696;2022-07-05T01:46:29;15.91;116.81
16505;HTU21D;8365;51.030;4.696;2022-07-05T01:49:06;15.71;118.99
16505;HTU21D;8365;51.030;4.696;2022-07-05T01:51:57;15.70;117.75
16505;HTU21D;8365;51.030;4.696;2022-07-05T01:54:29;15.69;117.06
16505;HTU21D;8365;51.030;4.696;2022-07-05T01:57:00;15.67;117.91
16505;HTU21D;8365;51.030;4.696;2022-07-05T01:59:34;15.63;118.63
16505;HTU21D;8365;51.030;4.696;2022-07-05T02:02:06;15.56;118.99
16505;HTU21D;8365;51.030;4.696;2022-07-05T02:04:37;15.55;118.90
16505;HTU21D;8365;51.030;4.696;2022-07-05T02:07:08;15.52;118.56
16505;HTU21D;8365;51.030;4.696;2022-07-05T02:09:39;15.49;118.65
16505;HTU21D;8365;51.030;4.696;2022-07-05T02:12:10;15.34;118.99
16505;HTU21D;8365;51.030;4.696;2022-07-05T02:14:40;15.27;118.99
16505;HTU21D;8365;51.030;4.696;2022-07-05T02:17:11;15.28;118.99
16505;HTU21D;8365;51.030;4.696;2022-07-05T02:19:41;15.26;118.99
16505;HTU21D;8365;51.030;4.696;2022-07-05T02:22:12;15.25;118.99
16505;HTU21D;8365;51.030;4.696;2022-07-05T02:24:42;15.26;118.99
16505;HTU21D;8365;51.030;4.696;2022-07-05T02:27:13;15.18;118.99
16505;HTU21D;8365;51.030;4.696;2022-07-05T02:29:43;15.09;118.99
16505;HTU21D;8365;51.030;4.696;2022-07-05T02:32:14;15.08;118.99
16505;HTU21D;8365;51.030;4.696;2022-07-05T02:34:44;15.07;118.99
16505;HTU21D;8365;51.030;4.696;2022-07-05T02:37:15;15.06;118.99
16505;HTU21D;8365;51.030;4.696;2022-07-05T02:39:45;15.03;118.99
16505;HTU21D;8365;51.030;4.696;2022-07-05T02:42:16;15.02;118.99
16505;HTU21D;8365;51.030;4.696;2022-07-05T02:44:46;15.09;118.99
16505;HTU21D;8365;51.030;4.696;2022-07-05T02:47:16;15.08;118.99
16505;HTU21D;8365;51.030;4.696;2022-07-05T02:49:49;15.03;118.99
16505;HTU21D;8365;51.030;4.696;2022-07-05T02:52:20;15.03;118.99
16505;HTU21D;8365;51.030;4.696;2022-07-05T02:54:50;15.04;118.99
16505;HTU21D;8365;51.030;4.696;2022-07-05T02:57:25;14.99;118.99
16505;HTU21D;8365;51.030;4.696;2022-07-05T02:59:56;15.10;118.99
16505;HTU21D;8365;51.030;4.696;2022-07-05T03:02:26;15.10;118.99
16505;HTU21D;8365;51.030;4.696;2022-07-05T03:04:59;15.13;118.99
16505;HTU21D;8365;51.030;4.696;2022-07-05T03:07:29;15.12;118.92
16505;HTU21D;8365;51.030;4.696;2022-07-05T03:10:02;15.16;118.82
16505;HTU21D;8365;51.030;4.696;2022-07-05T03:12:33;15.16;118.92
16505;HTU21D;8365;51.030;4.696;2022-07-05T03:15:04;15.15;118.99
16505;HTU21D;8365;51.030;4.696;2022-07-05T03:17:34;15.06;118.99
16505;HTU21D;8365;51.030;4.696;2022-07-05T03:20:05;15.09;118.99
16505;HTU21D;8365;51.030;4.696;2022-07-05T03:22:36;15.16;118.61
16505;HTU21D;8365;51.030;4.696;2022-07-05T03:25:06;15.16;118.80
16505;HTU21D;8365;51.030;4.696;2022-07-05T03:27:37;15.12;118.90
16505;HTU21D;8365;51.030;4.696;2022-07-05T03:30:08;15.02;118.99
16505;HTU21D;8365;51.030;4.696;2022-07-05T03:32:41;14.93;118.99
16505;HTU21D;8365;51.030;4.696;2022-07-05T03:35:11;14.94;118.99
16505;HTU21D;8365;51.030;4.696;2022-07-05T03:37:42;14.97;118.99
16505;HTU21D;8365;51.030;4.696;2022-07-05T03:40:12;15.01;118.99
16505;HTU21D;8365;51.030;4.696;2022-07-05T03:42:43;15.01;118.99
16505;HTU21D;8365;51.030;4.696;2022-07-05T03:45:13;14.99;118.99
16505;HTU21D;8365;51.030;4.696;2022-07-05T03:47:43;14.92;118.99
16505;HTU21D;8365;51.030;4.696;2022-07-05T03:50:14;15.04;118.86
16505;HTU21D;8365;51.030;4.696;2022-07-05T03:52:44;15.06;118.67
16505;HTU21D;8365;51.030;4.696;2022-07-05T03:55:15;15.01;118.35
16505;HTU21D;8365;51.030;4.696;2022-07-05T03:57:48;15.04;117.76
16505;HTU21D;8365;51.030;4.696;2022-07-05T04:00:18;15.04;118.80
16505;HTU21D;8365;51.030;4.696;2022-07-05T04:02:49;14.98;118.99
16505;HTU21D;8365;51.030;4.696;2022-07-05T04:05:19;15.03;118.99
16505;HTU21D;8365;51.030;4.696;2022-07-05T04:07:51;15.10;118.99
16505;HTU21D;8365;51.030;4.696;2022-07-05T04:10:22;15.10;118.99
16505;HTU21D;8365;51.030;4.696;2022-07-05T04:12:52;15.14;118.99
16505;HTU21D;8365;51.030;4.696;2022-07-05T04:15:23;15.16;118.99
16505;HTU21D;8365;51.030;4.696;2022-07-05T04:17:55;15.15;118.99
16505;HTU21D;8365;51.030;4.696;2022-07-05T04:20:25;15.27;118.99
16505;HTU21D;8365;51.030;4.696;2022-07-05T04:22:56;15.32;118.99
16505;HTU21D;8365;51.030;4.696;2022-07-05T04:25:27;15.38;118.99
16505;HTU21D;8365;51.030;4.696;2022-07-05T04:27:57;15.48;118.99
16505;HTU21D;8365;51.030;4.696;2022-07-05T04:30:28;15.52;118.99
16505;HTU21D;8365;51.030;4.696;2022-07-05T04:32:58;15.55;118.99
16505;HTU21D;8365;51.030;4.696;2022-07-05T04:35:28;15.53;118.99
16505;HTU21D;8365;51.030;4.696;2022-07-05T04:37:59;15.63;118.99
16505;HTU21D;8365;51.030;4.696;2022-07-05T04:40:32;15.69;118.99
16505;HTU21D;8365;51.030;4.696;2022-07-05T04:43:02;15.75;118.99
16505;HTU21D;8365;51.030;4.696;2022-07-05T04:45:33;15.74;118.99
16505;HTU21D;8365;51.030;4.696;2022-07-05T04:48:04;15.80;118.99
16505;HTU21D;8365;51.030;4.696;2022-07-05T04:50:34;15.86;118.99
16505;HTU21D;8365;51.030;4.696;2022-07-05T04:53:05;15.95;118.99
16505;HTU21D;8365;51.030;4.696;2022-07-05T04:55:37;15.96;118.99
16505;HTU21D;8365;51.030;4.696;2022-07-05T04:58:10;16.11;118.99
16505;HTU21D;8365;51.030;4.696;2022-07-05T05:00:41;16.15;118.99
16505;HTU21D;8365;51.030;4.696;2022-07-05T05:03:12;16.22;118.99
16505;HTU21D;8365;51.030;4.696;2022-07-05T05:05:42;16.32;118.99
16505;HTU21D;8365;51.030;4.696;2022-07-05T05:08:13;16.27;118.99
16505;HTU21D;8365;51.030;4.696;2022-07-05T05:10:43;16.30;118.99
16505;HTU21D;8365;51.030;4.696;2022-07-05T05:13:14;16.29;118.99
16505;HTU21D;8365;51.030;4.696;2022-07-05T05:15:44;16.33;118.99
16505;HTU21D;8365;51.030;4.696;2022-07-05T05:18:15;16.27;118.99
16505;HTU21D;8365;51.030;4.696;2022-07-05T05:20:48;16.50;118.99
16505;HTU21D;8365;51.030;4.696;2022-07-05T05:23:18;16.71;118.99
16505;HTU21D;8365;51.030;4.696;2022-07-05T05:25:49;16.78;118.99
16505;HTU21D;8365;51.030;4.696;2022-07-05T05:28:20;16.99;118.99
16505;HTU21D;8365;51.030;4.696;2022-07-05T05:30:52;16.93;118.99
16505;HTU21D;8365;51.030;4.696;2022-07-05T05:33:23;17.04;118.99
16505;HTU21D;8365;51.030;4.696;2022-07-05T05:35:53;17.11;118.99
16505;HTU21D;8365;51.030;4.696;2022-07-05T05:38:24;17.15;118.99
16505;HTU21D;8365;51.030;4.696;2022-07-05T05:40:54;17.03;118.99
16505;HTU21D;8365;51.030;4.696;2022-07-05T05:43:25;17.19;118.99
16505;HTU21D;8365;51.030;4.696;2022-07-05T05:45:55;16.90;118.99
16505;HTU21D;8365;51.030;4.696;2022-07-05T05:48:28;17.01;118.99
16505;HTU21D;8365;51.030;4.696;2022-07-05T05:51:01;16.88;118.99
16505;HTU21D;8365;51.030;4.696;2022-07-05T05:53:31;16.73;118.99
16505;HTU21D;8365;51.030;4.696;2022-07-05T05:56:02;16.95;118.99
16505;HTU21D;8365;51.030;4.696;2022-07-05T05:58:32;17.08;118.99
16505;HTU21D;8365;51.030;4.696;2022-07-05T06:01:03;17.15;118.99
16505;HTU21D;8365;51.030;4.696;2022-07-05T06:03:33;17.21;118.99
16505;HTU21D;8365;51.030;4.696;2022-07-05T06:06:04;17.13;118.99
16505;HTU21D;8365;51.030;4.696;2022-07-05T06:08:34;17.36;118.99
16505;HTU21D;8365;51.030;4.696;2022-07-05T06:11:05;17.46;118.74
16505;HTU21D;8365;51.030;4.696;2022-07-05T06:13:35;17.49;118.96
16505;HTU21D;8365;51.030;4.696;2022-07-05T06:16:06;17.37;118.56
16505;HTU21D;8365;51.030;4.696;2022-07-05T06:18:37;17.24;118.99
16505;HTU21D;8365;51.030;4.696;2022-07-05T06:21:07;17.36;118.99
16505;HTU21D;8365;51.030;4.696;2022-07-05T06:23:38;17.43;118.99
16505;HTU21D;8365;51.030;4.696;2022-07-05T06:26:08;17.51;118.12
16505;HTU21D;8365;51.030;4.696;2022-07-05T06:28:38;17.63;118.58
16505;HTU21D;8365;51.030;4.696;2022-07-05T06:31:09;17.89;115.48
16505;HTU21D;8365;51.030;4.696;2022-07-05T06:33:39;17.99;114.25
16505;HTU21D;8365;51.030;4.696;2022-07-05T06:36:10;17.93;116.43
16505;HTU21D;8365;51.030;4.696;2022-07-05T06:38:40;17.98;114.20
16505;HTU21D;8365;51.030;4.696;2022-07-05T06:41:11;17.96;115.38
16505;HTU21D;8365;51.030;4.696;2022-07-05T06:43:41;18.10;116.13
16505;HTU21D;8365;51.030;4.696;2022-07-05T06:46:11;18.21;115.77
16505;HTU21D;8365;51.030;4.696;2022-07-05T06:48:42;18.30;113.16
16505;HTU21D;8365;51.030;4.696;2022-07-05T06:51:12;18.48;112.80
16505;HTU21D;8365;51.030;4.696;2022-07-05T06:53:43;18.53;111.46
16505;HTU21D;8365;51.030;4.696;2022-07-05T06:56:13;18.40;110.75
16505;HTU21D;8365;51.030;4.696;2022-07-05T06:58:43;18.38;112.73
16505;HTU21D;8365;51.030;4.696;2022-07-05T07:01:14;18.64;112.00
16505;HTU21D;8365;51.030;4.696;2022-07-05T07:03:44;18.64;108.78
16505;HTU21D;8365;51.030;4.696;2022-07-05T07:06:17;18.62;110.36
16505;HTU21D;8365;51.030;4.696;2022-07-05T07:08:48;18.88;109.14
16505;HTU21D;8365;51.030;4.696;2022-07-05T07:11:36;19.01;106.59
16505;HTU21D;8365;51.030;4.696;2022-07-05T07:14:07;19.14;104.57
16505;HTU21D;8365;51.030;4.696;2022-07-05T07:16:37;19.37;104.16
16505;HTU21D;8365;51.030;4.696;2022-07-05T07:19:08;19.22;103.11
16505;HTU21D;8365;51.030;4.696;2022-07-05T07:21:39;19.13;102.16
16505;HTU21D;8365;51.030;4.696;2022-07-05T07:24:10;19.09;102.65
16505;HTU21D;8365;51.030;4.696;2022-07-05T07:26:41;18.98;103.86
16505;HTU21D;8365;51.030;4.696;2022-07-05T07:29:34;19.21;103.59
16505;HTU21D;8365;51.030;4.696;2022-07-05T07:32:06;19.31;103.73
16505;HTU21D;8365;51.030;4.696;2022-07-05T07:34:39;19.16;103.36
16505;HTU21D;8365;51.030;4.696;2022-07-05T07:37:09;19.09;105.35
16505;HTU21D;8365;51.030;4.696;2022-07-05T07:39:43;19.21;103.30
16505;HTU21D;8365;51.030;4.696;2022-07-05T07:42:13;19.44;105.23
16505;HTU21D;8365;51.030;4.696;2022-07-05T07:44:44;19.50;103.87
16505;HTU21D;8365;51.030;4.696;2022-07-05T07:47:14;19.69;103.85
16505;HTU21D;8365;51.030;4.696;2022-07-05T07:49:45;19.87;101.49
16505;HTU21D;8365;51.030;4.696;2022-07-05T07:52:15;20.27;100.32
16505;HTU21D;8365;51.030;4.696;2022-07-05T07:54:46;20.35;99.45
16505;HTU21D;8365;51.030;4.696;2022-07-05T07:57:16;20.59;98.97
16505;HTU21D;8365;51.030;4.696;2022-07-05T07:59:47;20.73;97.84
16505;HTU21D;8365;51.030;4.696;2022-07-05T08:02:17;20.83;97.74
16505;HTU21D;8365;51.030;4.696;2022-07-05T08:04:51;20.56;98.38
16505;HTU21D;8365;51.030;4.696;2022-07-05T08:07:21;20.81;99.51
16505;HTU21D;8365;51.030;4.696;2022-07-05T08:09:52;20.34;98.83
16505;HTU21D;8365;51.030;4.696;2022-07-05T08:12:23;20.75;96.94
16505;HTU21D;8365;51.030;4.696;2022-07-05T08:14:53;20.99;96.41
16505;HTU21D;8365;51.030;4.696;2022-07-05T08:17:23;21.18;95.37
16505;HTU21D;8365;51.030;4.696;2022-07-05T08:19:54;20.94;92.80
16505;HTU21D;8365;51.030;4.696;2022-07-05T08:22:43;20.47;96.33
16505;HTU21D;8365;51.030;4.696;2022-07-05T08:25:14;20.76;94.94
16505;HTU21D;8365;51.030;4.696;2022-07-05T08:27:44;20.58;95.97
16505;HTU21D;8365;51.030;4.696;2022-07-05T08:30:15;20.79;94.49
16505;HTU21D;8365;51.030;4.696;2022-07-05T08:32:46;20.79;94.02
16505;HTU21D;8365;51.030;4.696;2022-07-05T08:35:17;21.10;94.24
16505;HTU21D;8365;51.030;4.696;2022-07-05T08:37:48;21.01;92.37
16505;HTU21D;8365;51.030;4.696;2022-07-05T08:40:22;21.21;91.43
16505;HTU21D;8365;51.030;4.696;2022-07-05T08:42:57;21.42;90.89
16505;HTU21D;8365;51.030;4.696;2022-07-05T08:45:30;21.36;91.30
16505;HTU21D;8365;51.030;4.696;2022-07-05T08:48:01;21.36;93.80
16505;HTU21D;8365;51.030;4.696;2022-07-05T08:50:33;21.61;90.59
16505;HTU21D;8365;51.030;4.696;2022-07-05T08:53:05;21.70;90.81
16505;HTU21D;8365;51.030;4.696;2022-07-05T08:55:36;21.30;91.24
16505;HTU21D;8365;51.030;4.696;2022-07-05T08:58:07;21.61;92.16
16505;HTU21D;8365;51.030;4.696;2022-07-05T09:00:42;22.16;90.47
16505;HTU21D;8365;51.030;4.696;2022-07-05T09:03:13;22.39;89.45
16505;HTU21D;8365;51.030;4.696;2022-07-05T09:05:45;22.26;90.53
16505;HTU21D;8365;51.030;4.696;2022-07-05T09:08:18;22.78;88.70
16505;HTU21D;8365;51.030;4.696;2022-07-05T09:10:49;22.69;86.22
16505;HTU21D;8365;51.030;4.696;2022-07-05T09:13:20;22.80;84.93
16505;HTU21D;8365;51.030;4.696;2022-07-05T09:15:51;22.94;83.92
16505;HTU21D;8365;51.030;4.696;2022-07-05T09:18:44;22.50;85.93
16505;HTU21D;8365;51.030;4.696;2022-07-05T09:21:23;22.85;86.58
16505;HTU21D;8365;51.030;4.696;2022-07-05T09:24:05;22.32;89.16
16505;HTU21D;8365;51.030;4.696;2022-07-05T09:26:43;22.41;87.92
16505;HTU21D;8365;51.030;4.696;2022-07-05T09:29:17;22.76;87.02
16505;HTU21D;8365;51.030;4.696;2022-07-05T09:31:49;23.24;86.77
16505;HTU21D;8365;51.030;4.696;2022-07-05T09:34:20;22.81;86.93
16505;HTU21D;8365;51.030;4.696;2022-07-05T09:36:57;23.36;85.54
16505;HTU21D;8365;51.030;4.696;2022-07-05T09:44:45;23.25;81.17
16505;HTU21D;8365;51.030;4.696;2022-07-05T09:47:17;23.51;81.36
16505;HTU21D;8365;51.030;4.696;2022-07-05T09:49:56;24.12;80.32
16505;HTU21D;8365;51.030;4.696;2022-07-05T09:52:31;24.23;80.55
16505;HTU21D;8365;51.030;4.696;2022-07-05T09:55:16;24.20;83.08
16505;HTU21D;8365;51.030;4.696;2022-07-05T09:57:50;24.01;81.28
16505;HTU21D;8365;51.030;4.696;2022-07-05T10:00:22;23.97;78.79
16505;HTU21D;8365;51.030;4.696;2022-07-05T10:02:57;24.30;79.04
16505;HTU21D;8365;51.030;4.696;2022-07-05T10:05:32;25.03;74.44
16505;HTU21D;8365;51.030;4.696;2022-07-05T10:08:05;25.17;72.49
16505;HTU21D;8365;51.030;4.696;2022-07-05T10:10:36;24.87;74.32
16505;HTU21D;8365;51.030;4.696;2022-07-05T10:13:08;25.25;68.77
16505;HTU21D;8365;51.030;4.696;2022-07-05T10:15:41;25.37;65.95
16505;HTU21D;8365;51.030;4.696;2022-07-05T10:18:14;24.89;71.40
16505;HTU21D;8365;51.030;4.696;2022-07-05T10:20:46;24.70;70.48
16505;HTU21D;8365;51.030;4.696;2022-07-05T10:23:18;25.27;69.01
16505;HTU21D;8365;51.030;4.696;2022-07-05T10:25:49;24.48;75.19
16505;HTU21D;8365;51.030;4.696;2022-07-05T10:28:20;24.86;70.75
16505;HTU21D;8365;51.030;4.696;2022-07-05T10:30:51;24.33;77.24
16505;HTU21D;8365;51.030;4.696;2022-07-05T10:33:22;24.71;75.72
16505;HTU21D;8365;51.030;4.696;2022-07-05T10:35:57;25.44;72.16
16505;HTU21D;8365;51.030;4.696;2022-07-05T10:38:29;26.41;66.83
16505;HTU21D;8365;51.030;4.696;2022-07-05T10:41:02;27.97;59.73
16505;HTU21D;8365;51.030;4.696;2022-07-05T10:43:33;28.74;53.23
16505;HTU21D;8365;51.030;4.696;2022-07-05T10:46:06;28.41;50.63
16505;HTU21D;8365;51.030;4.696;2022-07-05T10:48:41;28.41;51.04
16505;HTU21D;8365;51.030;4.696;2022-07-05T10:54:02;29.94;47.28
16505;HTU21D;8365;51.030;4.696;2022-07-05T10:56:33;30.77;45.28
16505;HTU21D;8365;51.030;4.696;2022-07-05T10:59:08;29.43;47.50
16505;HTU21D;8365;51.030;4.696;2022-07-05T11:01:41;28.13;51.42
16505;HTU21D;8365;51.030;4.696;2022-07-05T11:04:24;27.02;59.59
16505;HTU21D;8365;51.030;4.696;2022-07-05T11:06:57;27.12;58.81
16505;HTU21D;8365;51.030;4.696;2022-07-05T11:09:28;25.71;63.75
16505;HTU21D;8365;51.030;4.696;2022-07-05T11:12:02;25.66;65.84
16505;HTU21D;8365;51.030;4.696;2022-07-05T11:14:34;26.06;64.32
16505;HTU21D;8365;51.030;4.696;2022-07-05T11:17:16;26.27;61.31
16505;HTU21D;8365;51.030;4.696;2022-07-05T11:22:30;27.61;53.74
16505;HTU21D;8365;51.030;4.696;2022-07-05T11:25:01;27.11;55.88
16505;HTU21D;8365;51.030;4.696;2022-07-05T11:27:33;27.47;53.72
16505;HTU21D;8365;51.030;4.696;2022-07-05T11:30:23;28.08;50.80
16505;HTU21D;8365;51.030;4.696;2022-07-05T11:32:54;27.68;52.29
16505;HTU21D;8365;51.030;4.696;2022-07-05T11:35:31;27.63;53.70
16505;HTU21D;8365;51.030;4.696;2022-07-05T11:38:06;27.99;46.53
16505;HTU21D;8365;51.030;4.696;2022-07-05T11:40:42;27.50;51.37
16505;HTU21D;8365;51.030;4.696;2022-07-05T11:43:13;27.21;52.82
16505;HTU21D;8365;51.030;4.696;2022-07-05T11:45:44;26.89;51.47
16505;HTU21D;8365;51.030;4.696;2022-07-05T11:48:16;28.19;47.51
16505;HTU21D;8365;51.030;4.696;2022-07-05T11:50:47;29.58;45.96
16505;HTU21D;8365;51.030;4.696;2022-07-05T11:53:29;29.01;45.16
16505;HTU21D;8365;51.030;4.696;2022-07-05T11:56:00;29.23;46.18
16505;HTU21D;8365;51.030;4.696;2022-07-05T11:58:33;27.38;49.01
16505;HTU21D;8365;51.030;4.696;2022-07-05T12:01:04;26.57;52.60
16505;HTU21D;8365;51.030;4.696;2022-07-05T12:03:36;25.50;56.72
16505;HTU21D;8365;51.030;4.696;2022-07-05T12:06:13;25.66;59.83
16505;HTU21D;8365;51.030;4.696;2022-07-05T12:08:43;26.03;59.41
16505;HTU21D;8365;51.030;4.696;2022-07-05T12:11:14;25.74;58.05
16505;HTU21D;8365;51.030;4.696;2022-07-05T12:14:03;26.03;59.19
16505;HTU21D;8365;51.030;4.696;2022-07-05T12:16:33;26.25;62.79
16505;HTU21D;8365;51.030;4.696;2022-07-05T12:19:04;27.14;62.02
16505;HTU21D;8365;51.030;4.696;2022-07-05T12:21:35;27.66;56.38
16505;HTU21D;8365;51.030;4.696;2022-07-05T12:24:06;27.08;60.22
16505;HTU21D;8365;51.030;4.696;2022-07-05T12:26:36;27.17;58.91
16505;HTU21D;8365;51.030;4.696;2022-07-05T12:29:07;28.40;53.83
16505;HTU21D;8365;51.030;4.696;2022-07-05T12:31:38;28.78;53.49
16505;HTU21D;8365;51.030;4.696;2022-07-05T12:34:21;29.08;50.72
16505;HTU21D;8365;51.030;4.696;2022-07-05T12:36:52;28.69;50.62
16505;HTU21D;8365;51.030;4.696;2022-07-05T12:39:22;29.16;49.38
16505;HTU21D;8365;51.030;4.696;2022-07-05T12:41:55;30.31;45.29
16505;HTU21D;8365;51.030;4.696;2022-07-05T12:44:26;30.39;44.21
16505;HTU21D;8365;51.030;4.696;2022-07-05T12:47:04;29.97;43.85
16505;HTU21D;8365;51.030;4.696;2022-07-05T12:49:54;30.09;44.18
16505;HTU21D;8365;51.030;4.696;2022-07-05T12:52:25;30.90;42.85
16505;HTU21D;8365;51.030;4.696;2022-07-05T12:55:11;30.08;41.93
16505;HTU21D;8365;51.030;4.696;2022-07-05T12:58:00;31.18;42.15
16505;HTU21D;8365;51.030;4.696;2022-07-05T13:00:33;29.30;45.26
16505;HTU21D;8365;51.030;4.696;2022-07-05T13:03:06;29.09;48.24
16505;HTU21D;8365;51.030;4.696;2022-07-05T13:05:37;29.51;46.44
16505;HTU21D;8365;51.030;4.696;2022-07-05T13:08:08;29.24;45.53
16505;HTU21D;8365;51.030;4.696;2022-07-05T13:10:45;29.89;45.25
16505;HTU21D;8365;51.030;4.696;2022-07-05T13:13:16;30.35;43.52
16505;HTU21D;8365;51.030;4.696;2022-07-05T13:15:50;30.63;42.00
16505;HTU21D;8365;51.030;4.696;2022-07-05T13:18:26;31.34;42.36
16505;HTU21D;8365;51.030;4.696;2022-07-05T13:20:57;29.88;45.14
16505;HTU21D;8365;51.030;4.696;2022-07-05T13:23:27;30.40;44.70
16505;HTU21D;8365;51.030;4.696;2022-07-05T13:26:00;30.00;44.54
16505;HTU21D;8365;51.030;4.696;2022-07-05T13:28:30;29.33;47.08
16505;HTU21D;8365;51.030;4.696;2022-07-05T13:31:01;30.35;42.47
16505;HTU21D;8365;51.030;4.696;2022-07-05T13:33:31;31.14;41.04
16505;HTU21D;8365;51.030;4.696;2022-07-05T13:36:04;30.74;40.88
16505;HTU21D;8365;51.030;4.696;2022-07-05T13:38:34;30.64;42.82
16505;HTU21D;8365;51.030;4.696;2022-07-05T13:41:05;31.20;40.16
16505;HTU21D;8365;51.030;4.696;2022-07-05T13:43:35;32.64;38.01
16505;HTU21D;8365;51.030;4.696;2022-07-05T13:46:08;31.52;37.96
16505;HTU21D;8365;51.030;4.696;2022-07-05T13:48:39;30.90;39.37
16505;HTU21D;8365;51.030;4.696;2022-07-05T13:51:09;30.35;40.01
16505;HTU21D;8365;51.030;4.696;2022-07-05T13:53:40;28.75;42.87
16505;HTU21D;8365;51.030;4.696;2022-07-05T13:56:11;28.82;45.38
16505;HTU21D;8365;51.030;4.696;2022-07-05T13:58:41;29.58;42.26
16505;HTU21D;8365;51.030;4.696;2022-07-05T14:01:12;29.26;45.10
16505;HTU21D;8365;51.030;4.696;2022-07-05T14:03:43;29.20;44.20
16505;HTU21D;8365;51.030;4.696;2022-07-05T14:06:13;29.87;43.31
16505;HTU21D;8365;51.030;4.696;2022-07-05T14:08:44;30.06;41.61
16505;HTU21D;8365;51.030;4.696;2022-07-05T14:11:14;29.34;43.61
16505;HTU21D;8365;51.030;4.696;2022-07-05T14:13:45;28.11;46.52
16505;HTU21D;8365;51.030;4.696;2022-07-05T14:16:15;27.52;49.12
16505;HTU21D;8365;51.030;4.696;2022-07-05T14:18:46;27.11;50.80
16505;HTU21D;8365;51.030;4.696;2022-07-05T14:21:17;27.20;51.29
16505;HTU21D;8365;51.030;4.696;2022-07-05T14:23:48;27.35;50.50
16505;HTU21D;8365;51.030;4.696;2022-07-05T14:26:18;27.58;49.11
16505;HTU21D;8365;51.030;4.696;2022-07-05T14:28:48;28.24;47.78
16505;HTU21D;8365;51.030;4.696;2022-07-05T14:31:19;28.53;47.25
16505;HTU21D;8365;51.030;4.696;2022-07-05T14:33:49;29.39;42.92
16505;HTU21D;8365;51.030;4.696;2022-07-05T14:36:20;29.02;42.84
16505;HTU21D;8365;51.030;4.696;2022-07-05T14:38:50;27.30;48.66
16505;HTU21D;8365;51.030;4.696;2022-07-05T14:41:21;28.08;48.48
16505;HTU21D;8365;51.030;4.696;2022-07-05T14:43:53;27.47;49.73
16505;HTU21D;8365;51.030;4.696;2022-07-05T14:46:26;28.49;46.93
16505;HTU21D;8365;51.030;4.696;2022-07-05T14:48:57;28.99;44.61
16505;HTU21D;8365;51.030;4.696;2022-07-05T14:51:27;29.41;43.74
16505;HTU21D;8365;51.030;4.696;2022-07-05T14:53:58;28.58;45.32
16505;HTU21D;8365;51.030;4.696;2022-07-05T14:56:28;29.56;43.46
16505;HTU21D;8365;51.030;4.696;2022-07-05T14:58:59;29.72;43.40
16505;HTU21D;8365;51.030;4.696;2022-07-05T15:01:29;30.17;39.74
16505;HTU21D;8365;51.030;4.696;2022-07-05T15:03:59;30.19;39.72
16505;HTU21D;8365;51.030;4.696;2022-07-05T15:06:30;30.92;38.82
16505;HTU21D;8365;51.030;4.696;2022-07-05T15:09:00;31.45;37.79
16505;HTU21D;8365;51.030;4.696;2022-07-05T15:11:31;29.35;39.85
16505;HTU21D;8365;51.030;4.696;2022-07-05T15:14:02;29.46;40.17
16505;HTU21D;8365;51.030;4.696;2022-07-05T15:16:35;27.54;43.90
16505;HTU21D;8365;51.030;4.696;2022-07-05T15:19:07;26.27;48.27
16505;HTU21D;8365;51.030;4.696;2022-07-05T15:21:38;27.41;46.29
16505;HTU21D;8365;51.030;4.696;2022-07-05T15:24:08;27.25;45.98
16505;HTU21D;8365;51.030;4.696;2022-07-05T15:26:41;27.80;45.31
16505;HTU21D;8365;51.030;4.696;2022-07-05T15:29:12;28.14;44.09
16505;HTU21D;8365;51.030;4.696;2022-07-05T15:31:43;28.25;43.37
16505;HTU21D;8365;51.030;4.696;2022-07-05T15:34:13;27.81;43.66
16505;HTU21D;8365;51.030;4.696;2022-07-05T15:36:44;27.80;44.10
16505;HTU21D;8365;51.030;4.696;2022-07-05T15:39:14;27.86;43.73
16505;HTU21D;8365;51.030;4.696;2022-07-05T15:41:44;28.68;41.46
16505;HTU21D;8365;51.030;4.696;2022-07-05T15:44:15;28.11;42.65
16505;HTU21D;8365;51.030;4.696;2022-07-05T15:46:45;28.65;41.71
16505;HTU21D;8365;51.030;4.696;2022-07-05T15:49:37;28.25;42.93
16505;HTU21D;8365;51.030;4.696;2022-07-05T15:52:08;27.04;44.23
16505;HTU21D;8365;51.030;4.696;2022-07-05T15:54:38;26.72;45.52
16505;HTU21D;8365;51.030;4.696;2022-07-05T15:57:09;26.19;46.67
16505;HTU21D;8365;51.030;4.696;2022-07-05T15:59:40;25.60;49.27
16505;HTU21D;8365;51.030;4.696;2022-07-05T16:02:10;25.94;48.31